createdAt,value
2023-02-27T08:04:12.649Z,99.90
2023-02-27T08:06:39.854Z,99.90
2023-02-27T08:09:06.675Z,99.90
2023-02-27T08:11:33.433Z,99.90
2023-02-27T08:14:01.542Z,99.90
2023-02-27T08:16:30.777Z,99.90
2023-02-27T08:18:57.904Z,99.90
2023-02-27T08:21:24.958Z,99.90
2023-02-27T08:23:51.729Z,99.90
2023-02-27T08:26:18.652Z,99.90
2023-02-27T08:28:45.764Z,99.90
2023-02-27T08:31:12.544Z,99.90
2023-02-27T08:33:39.429Z,99.90
2023-02-27T08:36:07.420Z,99.90
2023-02-27T08:38:34.123Z,99.90
2023-02-27T08:41:00.982Z,99.90
2023-02-27T08:43:27.689Z,99.90
2023-02-27T08:45:54.491Z,99.90
2023-02-27T08:48:21.334Z,99.90
2023-02-27T08:50:48.148Z,99.90
2023-02-27T08:53:14.876Z,99.90
2023-02-27T08:55:42.516Z,99.90
2023-02-27T08:58:10.452Z,99.90
2023-02-27T09:00:37.293Z,99.90
2023-02-27T09:03:04.139Z,99.90
2023-02-27T09:05:35.042Z,99.90
2023-02-27T09:08:02.591Z,99.90
2023-02-27T09:10:29.506Z,99.90
2023-02-27T09:12:56.212Z,99.90
2023-02-27T09:15:24.213Z,99.90
2023-02-27T09:17:50.969Z,99.90
2023-02-27T09:20:17.896Z,99.90
2023-02-27T09:22:44.611Z,99.90
2023-02-27T09:25:11.298Z,99.90
2023-02-27T09:27:37.984Z,99.90
2023-02-27T09:30:05.380Z,99.90
2023-02-27T09:32:32.665Z,99.90
2023-02-27T09:35:00.419Z,99.90
2023-02-27T09:37:27.104Z,99.90
2023-02-27T09:39:53.863Z,99.90
2023-02-27T09:42:33.380Z,99.90
2023-02-27T09:45:05.983Z,99.90
2023-02-27T09:47:39.554Z,99.90
2023-02-27T09:50:47.064Z,99.90
2023-02-27T09:53:31.092Z,99.90
2023-02-27T09:56:09.959Z,99.90
2023-02-27T09:58:57.793Z,99.70
2023-02-27T10:01:37.164Z,99.90
2023-02-27T10:04:24.311Z,99.90
2023-02-27T10:07:16.843Z,99.90
2023-02-27T10:09:58.629Z,99.90
2023-02-27T10:12:36.304Z,99.90
2023-02-27T10:15:20.328Z,99.90
2023-02-27T10:17:56.625Z,99.90
2023-02-27T10:20:36.597Z,99.90
2023-02-27T10:23:20.495Z,99.90
2023-02-27T10:25:50.649Z,99.90
2023-02-27T10:28:20.606Z,99.90
2023-02-27T10:30:54.816Z,99.90
2023-02-27T10:33:32.585Z,99.90
2023-02-27T10:36:01.876Z,99.90
2023-02-27T10:38:37.480Z,99.90
2023-02-27T10:41:05.658Z,99.90
2023-02-27T10:43:32.404Z,99.90
2023-02-27T10:46:07.223Z,99.90
2023-02-27T10:48:33.952Z,99.80
2023-02-27T10:51:32.807Z,98.90
2023-02-27T10:54:20.980Z,99.70
2023-02-27T10:56:59.996Z,99.90
2023-02-27T10:59:31.512Z,99.90
2023-02-27T11:02:06.108Z,99.90
2023-02-27T11:04:40.521Z,99.90
2023-02-27T11:07:11.543Z,99.90
2023-02-27T11:09:38.511Z,99.90
2023-02-27T11:12:42.233Z,99.10
2023-02-27T11:15:14.998Z,99.30
2023-02-27T11:17:43.606Z,97.30
2023-02-27T11:20:40.656Z,98.80
2023-02-27T11:23:16.350Z,99.90
2023-02-27T11:25:44.037Z,99.90
2023-02-27T11:28:30.470Z,99.90
2023-02-27T11:31:16.229Z,99.90
2023-02-27T11:33:57.505Z,99.90
2023-02-27T11:36:42.904Z,99.90
2023-02-27T11:39:26.213Z,99.90
2023-02-27T11:41:55.428Z,99.90
2023-02-27T11:44:32.755Z,99.90
2023-02-27T11:47:20.125Z,98.70
2023-02-27T11:50:13.546Z,97.50
2023-02-27T11:53:07.487Z,98.70
2023-02-27T11:55:35.706Z,96.80
2023-02-27T11:58:12.071Z,95.60
2023-02-27T12:01:08.561Z,95.30
2023-02-27T12:03:51.219Z,96.40
2023-02-27T12:06:28.648Z,99.90
2023-02-27T12:09:00.850Z,99.90
2023-02-27T12:11:36.340Z,99.90
2023-02-27T12:14:16.570Z,99.90
2023-02-27T12:16:50.657Z,99.90
2023-02-27T12:19:30.475Z,99.60
2023-02-27T12:22:04.528Z,99.90
2023-02-27T12:24:44.860Z,99.90
2023-02-27T12:27:43.835Z,99.90
2023-02-27T12:30:29.501Z,99.90
2023-02-27T12:33:34.061Z,99.90
2023-02-27T12:36:03.800Z,99.90
2023-02-27T12:38:31.703Z,99.90
2023-02-27T12:41:27.517Z,99.90
2023-02-27T12:44:07.977Z,99.90
2023-02-27T12:50:01.438Z,99.90
2023-02-27T12:52:39.879Z,99.90
2023-02-27T12:55:23.567Z,99.90
2023-02-27T12:58:07.466Z,99.90
2023-02-27T13:04:25.894Z,99.90
2023-02-27T13:07:09.167Z,99.90
2023-02-27T13:09:44.353Z,99.90
2023-02-27T13:12:29.534Z,99.90
2023-02-27T13:15:05.563Z,99.90
2023-02-27T13:17:43.922Z,99.90
2023-02-27T13:20:40.272Z,99.90
2023-02-27T13:23:37.951Z,99.90
2023-02-27T13:26:16.717Z,99.90
2023-02-27T13:28:44.032Z,99.90
2023-02-27T13:31:44.865Z,99.90
2023-02-27T13:34:20.303Z,99.90
2023-02-27T13:36:52.568Z,99.90
2023-02-27T13:39:56.204Z,99.90
2023-02-27T13:42:27.214Z,99.90
2023-02-27T13:44:56.978Z,99.90
2023-02-27T13:47:29.888Z,99.90
2023-02-27T13:50:04.960Z,99.90
2023-02-27T13:52:37.725Z,99.90
2023-02-27T13:55:24.820Z,99.90
2023-02-27T13:57:54.007Z,99.90
2023-02-27T14:00:24.195Z,99.90
2023-02-27T14:03:00.202Z,99.90
2023-02-27T14:05:34.824Z,99.90
2023-02-27T14:08:08.704Z,99.90
2023-02-27T14:10:37.384Z,99.90
2023-02-27T14:13:06.800Z,99.90
2023-02-27T14:15:34.504Z,99.90
2023-02-27T14:18:16.039Z,99.90
2023-02-27T14:20:51.329Z,99.90
2023-02-27T14:23:28.375Z,99.90
2023-02-27T14:26:20.500Z,99.90
2023-02-27T14:28:55.877Z,99.90
2023-02-27T14:31:28.432Z,99.90
2023-02-27T14:33:58.764Z,99.90
2023-02-27T14:36:28.036Z,99.90
2023-02-27T14:38:59.663Z,99.90
2023-02-27T14:42:02.845Z,99.90
2023-02-27T14:44:39.976Z,99.90
2023-02-27T14:47:07.061Z,99.90
2023-02-27T14:49:35.964Z,99.90
2023-02-27T14:52:22.281Z,99.90
2023-02-27T14:54:50.322Z,99.90
2023-02-27T14:57:24.241Z,99.90
2023-02-27T14:59:53.884Z,99.90
2023-02-27T15:02:25.037Z,99.90
2023-02-27T15:05:00.866Z,99.90
2023-02-27T15:07:31.080Z,99.90
2023-02-27T15:10:02.088Z,99.90
2023-02-27T15:12:30.609Z,99.90
2023-02-27T15:15:00.111Z,99.90
2023-02-27T15:17:36.409Z,99.90
2023-02-27T15:20:21.998Z,99.90
2023-02-27T15:22:48.819Z,99.90
2023-02-27T15:25:36.571Z,99.90
2023-02-27T15:28:18.844Z,99.90
2023-02-27T15:30:51.403Z,99.90
2023-02-27T15:33:22.421Z,99.90
2023-02-27T15:35:49.214Z,99.90
2023-02-27T15:38:34.246Z,99.90
2023-02-27T15:41:03.007Z,99.90
2023-02-27T15:43:30.665Z,99.90
2023-02-27T15:45:58.301Z,99.90
2023-02-27T15:48:25.878Z,99.90
2023-02-27T15:50:57.076Z,99.90
2023-02-27T15:53:30.703Z,99.90
2023-02-27T15:56:00.688Z,99.90
2023-02-27T15:58:31.662Z,99.90
2023-02-27T16:01:11.309Z,99.90
